sensor_id;sensor_type;location;lat;lon;timestamp;pressure;altitude;pressure_sealevel;temperature;humidity
33845;BME280;20145;43.118;25.694;2022-10-16T00:00:57;100281.78;;;9.95;74.71
33845;BME280;20145;43.118;25.694;2022-10-16T00:03:23;100282.63;;;9.81;74.66
33845;BME280;20145;43.118;25.694;2022-10-16T00:05:48;100279.94;;;9.65;74.88
33845;BME280;20145;43.118;25.694;2022-10-16T00:08:14;100282.41;;;9.46;74.67
33845;BME280;20145;43.118;25.694;2022-10-16T00:10:40;100291.69;;;9.24;76.26
33845;BME280;20145;43.118;25.694;2022-10-16T00:13:06;100289.81;;;9.05;75.94
33845;BME280;20145;43.118;25.694;2022-10-16T00:15:36;100288.75;;;8.83;77.09
33845;BME280;20145;43.118;25.694;2022-10-16T00:18:03;100287.75;;;8.65;78.58
33845;BME280;20145;43.118;25.694;2022-10-16T00:20:29;100299.50;;;8.45;79.36
33845;BME280;20145;43.118;25.694;2022-10-16T00:22:56;100299.28;;;8.26;79.94
33845;BME280;20145;43.118;25.694;2022-10-16T00:25:22;100305.06;;;8.09;80.65
33845;BME280;20145;43.118;25.694;2022-10-16T00:27:48;100303.22;;;7.98;81.84
33845;BME280;20145;43.118;25.694;2022-10-16T00:30:14;100306.47;;;7.87;82.09
33845;BME280;20145;43.118;25.694;2022-10-16T00:32:39;100306.38;;;7.77;82.49
33845;BME280;20145;43.118;25.694;2022-10-16T00:35:05;100312.25;;;7.69;83.22
33845;BME280;20145;43.118;25.694;2022-10-16T00:37:31;100314.69;;;7.61;83.29
33845;BME280;20145;43.118;25.694;2022-10-16T00:39:56;100314.59;;;7.55;83.42
33845;BME280;20145;43.118;25.694;2022-10-16T00:42:22;100317.03;;;7.46;83.86
33845;BME280;20145;43.118;25.694;2022-10-16T00:44:56;100312.59;;;7.37;84.06
33845;BME280;20145;43.118;25.694;2022-10-16T00:49:52;100316.72;;;7.26;84.39
33845;BME280;20145;43.118;25.694;2022-10-16T00:52:19;100316.63;;;7.20;84.70
33845;BME280;20145;43.118;25.694;2022-10-16T00:54:46;100325.03;;;7.11;85.03
33845;BME280;20145;43.118;25.694;2022-10-16T00:57:12;100330.97;;;7.07;85.96
33845;BME280;20145;43.118;25.694;2022-10-16T00:59:39;100330.06;;;7.05;86.14
33845;BME280;20145;43.118;25.694;2022-10-16T01:02:08;100331.72;;;7.03;86.54
33845;BME280;20145;43.118;25.694;2022-10-16T01:04:37;100334.09;;;6.92;87.05
33845;BME280;20145;43.118;25.694;2022-10-16T01:07:43;100329.69;;;6.83;86.67
33845;BME280;20145;43.118;25.694;2022-10-16T01:21:45;100330.25;;;6.67;87.44
33845;BME280;20145;43.118;25.694;2022-10-16T01:29:30;100337.75;;;6.58;88.20
33845;BME280;20145;43.118;25.694;2022-10-16T01:32:00;100338.63;;;6.58;88.06
33845;BME280;20145;43.118;25.694;2022-10-16T01:34:49;100342.00;;;6.56;88.04
33845;BME280;20145;43.118;25.694;2022-10-16T01:37:25;100341.97;;;6.54;88.07
33845;BME280;20145;43.118;25.694;2022-10-16T01:39:55;100343.59;;;6.49;88.78
33845;BME280;20145;43.118;25.694;2022-10-16T01:42:29;100345.34;;;6.52;88.49
33845;BME280;20145;43.118;25.694;2022-10-16T01:44:57;100340.22;;;6.52;88.70
33845;BME280;20145;43.118;25.694;2022-10-16T01:47:25;100341.03;;;6.49;88.31
33845;BME280;20145;43.118;25.694;2022-10-16T01:49:53;100338.47;;;6.49;88.73
33845;BME280;20145;43.118;25.694;2022-10-16T01:52:23;100347.84;;;6.48;88.69
33845;BME280;20145;43.118;25.694;2022-10-16T01:54:52;100340.06;;;6.45;88.43
33845;BME280;20145;43.118;25.694;2022-10-16T01:57:20;100346.03;;;6.44;88.47
33845;BME280;20145;43.118;25.694;2022-10-16T01:59:49;100346.03;;;6.43;88.10
33845;BME280;20145;43.118;25.694;2022-10-16T02:02:20;100348.56;;;6.41;89.02
33845;BME280;20145;43.118;25.694;2022-10-16T02:05:16;100348.56;;;6.41;88.92
33845;BME280;20145;43.118;25.694;2022-10-16T02:07:43;100346.75;;;6.37;89.02
33845;BME280;20145;43.118;25.694;2022-10-16T02:10:10;100346.84;;;6.40;89.35
33845;BME280;20145;43.118;25.694;2022-10-16T02:12:38;100351.00;;;6.37;89.52
33845;BME280;20145;43.118;25.694;2022-10-16T02:15:06;100353.63;;;6.38;89.74
33845;BME280;20145;43.118;25.694;2022-10-16T02:17:32;100349.34;;;6.39;88.77
33845;BME280;20145;43.118;25.694;2022-10-16T02:19:58;100357.91;;;6.39;88.99
33845;BME280;20145;43.118;25.694;2022-10-16T02:22:32;100357.84;;;6.35;88.58
33845;BME280;20145;43.118;25.694;2022-10-16T02:28:07;100363.81;;;6.35;89.69
33845;BME280;20145;43.118;25.694;2022-10-16T02:30:32;100365.44;;;6.32;89.92
33845;BME280;20145;43.118;25.694;2022-10-16T02:33:00;100370.47;;;6.27;89.83
33845;BME280;20145;43.118;25.694;2022-10-16T02:35:28;100366.94;;;6.22;89.75
33845;BME280;20145;43.118;25.694;2022-10-16T02:37:55;100367.78;;;6.21;90.13
33845;BME280;20145;43.118;25.694;2022-10-16T02:40:22;100364.22;;;6.13;90.25
33845;BME280;20145;43.118;25.694;2022-10-16T02:42:50;100367.50;;;6.07;89.88
33845;BME280;20145;43.118;25.694;2022-10-16T02:45:17;100371.59;;;5.99;90.00
33845;BME280;20145;43.118;25.694;2022-10-16T02:47:43;100380.06;;;5.96;90.82
33845;BME280;20145;43.118;25.694;2022-10-16T02:50:08;100373.19;;;5.95;91.32
33845;BME280;20145;43.118;25.694;2022-10-16T02:52:34;100380.13;;;5.99;91.49
33845;BME280;20145;43.118;25.694;2022-10-16T02:55:00;100372.44;;;5.99;91.17
33845;BME280;20145;43.118;25.694;2022-10-16T02:57:25;100369.81;;;5.96;90.32
33845;BME280;20145;43.118;25.694;2022-10-16T02:59:51;100390.50;;;6.06;90.55
33845;BME280;20145;43.118;25.694;2022-10-16T03:02:16;100387.16;;;6.08;90.70
33845;BME280;20145;43.118;25.694;2022-10-16T03:04:42;100393.19;;;6.10;90.67
33845;BME280;20145;43.118;25.694;2022-10-16T03:07:08;100383.78;;;6.11;89.92
33845;BME280;20145;43.118;25.694;2022-10-16T03:09:33;100389.78;;;6.11;89.55
33845;BME280;20145;43.118;25.694;2022-10-16T03:11:59;100394.91;;;6.11;88.60
33845;BME280;20145;43.118;25.694;2022-10-16T03:14:24;100389.72;;;6.08;88.88
33845;BME280;20145;43.118;25.694;2022-10-16T03:16:50;100400.88;;;6.10;88.91
33845;BME280;20145;43.118;25.694;2022-10-16T03:19:16;100402.53;;;6.08;88.90
33845;BME280;20145;43.118;25.694;2022-10-16T03:21:43;100386.88;;;5.96;88.17
33845;BME280;20145;43.118;25.694;2022-10-16T03:24:08;100404.97;;;6.03;88.84
33845;BME280;20145;43.118;25.694;2022-10-16T03:26:34;100398.91;;;6.00;89.12
33845;BME280;20145;43.118;25.694;2022-10-16T03:29:00;100406.53;;;5.97;89.41
33845;BME280;20145;43.118;25.694;2022-10-16T03:31:27;100406.56;;;5.98;90.26
33845;BME280;20145;43.118;25.694;2022-10-16T03:33:53;100409.13;;;5.98;90.58
33845;BME280;20145;43.118;25.694;2022-10-16T03:36:18;100404.78;;;5.94;90.35
33845;BME280;20145;43.118;25.694;2022-10-16T03:38:44;100408.31;;;5.99;91.18
33845;BME280;20145;43.118;25.694;2022-10-16T03:41:09;100407.47;;;6.00;91.01
33845;BME280;20145;43.118;25.694;2022-10-16T03:43:35;100407.47;;;6.00;90.61
33845;BME280;20145;43.118;25.694;2022-10-16T03:46:01;100405.69;;;5.98;90.27
33845;BME280;20145;43.118;25.694;2022-10-16T03:48:26;100405.69;;;5.96;89.82
33845;BME280;20145;43.118;25.694;2022-10-16T03:50:52;100403.91;;;5.94;88.99
33845;BME280;20145;43.118;25.694;2022-10-16T03:53:18;100409.75;;;5.90;89.02
33845;BME280;20145;43.118;25.694;2022-10-16T03:55:44;100406.25;;;5.86;88.73
33845;BME280;20145;43.118;25.694;2022-10-16T03:58:10;100411.31;;;5.83;89.10
33845;BME280;20145;43.118;25.694;2022-10-16T04:00:40;100412.03;;;5.77;88.65
33845;BME280;20145;43.118;25.694;2022-10-16T04:03:05;100415.31;;;5.72;88.25
33845;BME280;20145;43.118;25.694;2022-10-16T04:05:31;100418.66;;;5.69;88.94
33845;BME280;20145;43.118;25.694;2022-10-16T04:07:56;100416.81;;;5.64;89.49
33845;BME280;20145;43.118;25.694;2022-10-16T04:10:22;100413.34;;;5.60;89.54
33845;BME280;20145;43.118;25.694;2022-10-16T04:12:47;100412.38;;;5.56;89.39
33845;BME280;20145;43.118;25.694;2022-10-16T04:15:13;100417.41;;;5.52;89.82
33845;BME280;20145;43.118;25.694;2022-10-16T04:17:39;100413.09;;;5.51;88.78
33845;BME280;20145;43.118;25.694;2022-10-16T04:20:05;100408.81;;;5.51;89.34
33845;BME280;20145;43.118;25.694;2022-10-16T04:22:31;100408.03;;;5.52;89.59
33845;BME280;20145;43.118;25.694;2022-10-16T04:24:56;100403.75;;;5.53;89.38
33845;BME280;20145;43.118;25.694;2022-10-16T04:27:22;100412.31;;;5.53;89.23
33845;BME280;20145;43.118;25.694;2022-10-16T04:29:47;100401.16;;;5.51;89.24
33845;BME280;20145;43.118;25.694;2022-10-16T04:32:13;100404.47;;;5.47;89.51
33845;BME280;20145;43.118;25.694;2022-10-16T04:34:39;100410.53;;;5.51;89.81
33845;BME280;20145;43.118;25.694;2022-10-16T04:37:05;100413.09;;;5.51;88.78
33845;BME280;20145;43.118;25.694;2022-10-16T04:39:31;100414.78;;;5.49;89.26
33845;BME280;20145;43.118;25.694;2022-10-16T04:41:56;100424.00;;;5.44;88.99
33845;BME280;20145;43.118;25.694;2022-10-16T04:44:22;100423.22;;;5.46;89.67
33845;BME280;20145;43.118;25.694;2022-10-16T04:46:51;100430.97;;;5.49;90.02
33845;BME280;20145;43.118;25.694;2022-10-16T04:49:17;100435.25;;;5.50;89.89
33845;BME280;20145;43.118;25.694;2022-10-16T04:51:42;100437.81;;;5.50;90.91
33845;BME280;20145;43.118;25.694;2022-10-16T04:54:09;100440.53;;;5.56;90.32
33845;BME280;20145;43.118;25.694;2022-10-16T04:56:35;100439.72;;;5.57;90.05
33845;BME280;20145;43.118;25.694;2022-10-16T04:59:10;100446.78;;;5.68;90.79
33845;BME280;20145;43.118;25.694;2022-10-16T05:01:36;100439.22;;;5.72;90.69
33845;BME280;20145;43.118;25.694;2022-10-16T05:04:01;100448.78;;;5.79;90.84
33845;BME280;20145;43.118;25.694;2022-10-16T05:06:27;100447.28;;;5.88;90.38
33845;BME280;20145;43.118;25.694;2022-10-16T05:08:53;100456.84;;;5.95;90.12
33845;BME280;20145;43.118;25.694;2022-10-16T05:11:19;100457.06;;;6.04;90.15
33845;BME280;20145;43.118;25.694;2022-10-16T05:13:44;100453.94;;;6.16;90.66
33845;BME280;20145;43.118;25.694;2022-10-16T05:16:10;100448.97;;;6.23;90.80
33845;BME280;20145;43.118;25.694;2022-10-16T05:18:36;100465.53;;;6.38;90.51
33845;BME280;20145;43.118;25.694;2022-10-16T05:21:02;100476.09;;;6.53;89.78
33845;BME280;20145;43.118;25.694;2022-10-16T05:23:28;100466.88;;;6.61;90.40
33845;BME280;20145;43.118;25.694;2022-10-16T05:25:55;100465.41;;;6.73;89.71
33845;BME280;20145;43.118;25.694;2022-10-16T05:28:24;100481.06;;;6.86;89.66
33845;BME280;20145;43.118;25.694;2022-10-16T05:30:50;100474.41;;;6.95;89.77
33845;BME280;20145;43.118;25.694;2022-10-16T05:33:16;100473.81;;;7.09;90.32
33845;BME280;20145;43.118;25.694;2022-10-16T05:35:42;100477.56;;;7.25;89.37
33845;BME280;20145;43.118;25.694;2022-10-16T05:38:09;100482.84;;;7.33;89.61
33845;BME280;20145;43.118;25.694;2022-10-16T05:40:35;100482.28;;;7.51;90.27
33845;BME280;20145;43.118;25.694;2022-10-16T05:43:00;100492.88;;;7.68;90.43
33845;BME280;20145;43.118;25.694;2022-10-16T05:45:26;100487.19;;;7.86;91.28
33845;BME280;20145;43.118;25.694;2022-10-16T05:47:52;100490.81;;;7.98;92.04
33845;BME280;20145;43.118;25.694;2022-10-16T05:50:18;100497.91;;;8.13;91.57
33845;BME280;20145;43.118;25.694;2022-10-16T05:52:43;100492.19;;;8.33;91.79
33845;BME280;20145;43.118;25.694;2022-10-16T05:55:09;100500.28;;;8.57;91.43
33845;BME280;20145;43.118;25.694;2022-10-16T05:57:35;100502.25;;;8.77;90.06
33845;BME280;20145;43.118;25.694;2022-10-16T06:00:00;100497.22;;;8.84;88.42
33845;BME280;20145;43.118;25.694;2022-10-16T06:02:26;100510.19;;;8.95;87.24
33845;BME280;20145;43.118;25.694;2022-10-16T06:04:52;100513.72;;;9.03;88.57
33845;BME280;20145;43.118;25.694;2022-10-16T06:07:21;100519.13;;;9.23;86.64
33845;BME280;20145;43.118;25.694;2022-10-16T06:09:49;100524.56;;;9.49;85.41
33845;BME280;20145;43.118;25.694;2022-10-16T06:12:15;100520.41;;;9.67;85.17
33845;BME280;20145;43.118;25.694;2022-10-16T06:14:41;100512.81;;;9.79;84.61
33845;BME280;20145;43.118;25.694;2022-10-16T06:17:07;100520.63;;;9.88;83.79
33845;BME280;20145;43.118;25.694;2022-10-16T06:19:32;100513.84;;;9.99;83.13
33845;BME280;20145;43.118;25.694;2022-10-16T06:21:58;100528.53;;;10.08;85.01
33845;BME280;20145;43.118;25.694;2022-10-16T06:24:25;100530.38;;;10.23;83.89
33845;BME280;20145;43.118;25.694;2022-10-16T06:26:50;100527.91;;;10.34;83.07
33845;BME280;20145;43.118;25.694;2022-10-16T06:29:16;100534.03;;;10.48;82.37
33845;BME280;20145;43.118;25.694;2022-10-16T06:31:42;100540.16;;;10.68;82.06
33845;BME280;20145;43.118;25.694;2022-10-16T06:34:09;100541.09;;;10.78;80.78
33845;BME280;20145;43.118;25.694;2022-10-16T06:36:37;100538.53;;;10.84;81.20
33845;BME280;20145;43.118;25.694;2022-10-16T06:39:03;100537.69;;;10.94;81.65
33845;BME280;20145;43.118;25.694;2022-10-16T06:41:30;100544.63;;;10.96;81.29
33845;BME280;20145;43.118;25.694;2022-10-16T06:43:56;100550.59;;;10.91;81.54
33845;BME280;20145;43.118;25.694;2022-10-16T06:46:24;100552.41;;;11.03;81.24
33845;BME280;20145;43.118;25.694;2022-10-16T06:48:51;100555.00;;;11.12;81.82
33845;BME280;20145;43.118;25.694;2022-10-16T06:51:19;100559.41;;;11.35;81.08
33845;BME280;20145;43.118;25.694;2022-10-16T06:53:48;100569.75;;;11.47;80.92
33845;BME280;20145;43.118;25.694;2022-10-16T06:56:20;100562.94;;;11.66;80.75
33845;BME280;20145;43.118;25.694;2022-10-16T06:58:46;100576.75;;;11.76;79.08
33845;BME280;20145;43.118;25.694;2022-10-16T07:01:13;100565.50;;;11.58;79.00
33845;BME280;20145;43.118;25.694;2022-10-16T07:03:40;100568.06;;;11.55;80.11
33845;BME280;20145;43.118;25.694;2022-10-16T07:06:08;100572.41;;;11.63;79.27
33845;BME280;20145;43.118;25.694;2022-10-16T07:08:36;100581.81;;;11.37;80.37
33845;BME280;20145;43.118;25.694;2022-10-16T07:11:13;100573.94;;;11.10;81.98
33845;BME280;20145;43.118;25.694;2022-10-16T07:13:40;100571.34;;;11.08;81.74
33845;BME280;20145;43.118;25.694;2022-10-16T07:16:07;100577.41;;;11.09;82.37
33845;BME280;20145;43.118;25.694;2022-10-16T07:18:33;100572.22;;;11.10;82.12
33845;BME280;20145;43.118;25.694;2022-10-16T07:21:13;100574.78;;;11.07;82.12
33845;BME280;20145;43.118;25.694;2022-10-16T07:23:39;100584.28;;;11.10;82.16
33845;BME280;20145;43.118;25.694;2022-10-16T07:26:06;100588.56;;;11.08;83.59
33845;BME280;20145;43.118;25.694;2022-10-16T07:28:32;100584.28;;;11.10;83.44
33845;BME280;20145;43.118;25.694;2022-10-16T07:31:06;100597.25;;;11.21;83.71
33845;BME280;20145;43.118;25.694;2022-10-16T07:33:34;100595.53;;;11.30;82.76
33845;BME280;20145;43.118;25.694;2022-10-16T07:35:59;100593.78;;;11.25;83.15
33845;BME280;20145;43.118;25.694;2022-10-16T07:38:25;100596.41;;;11.32;82.72
33845;BME280;20145;43.118;25.694;2022-10-16T07:41:02;100603.38;;;11.46;82.86
33845;BME280;20145;43.118;25.694;2022-10-16T07:43:28;100605.09;;;11.48;81.83
33845;BME280;20145;43.118;25.694;2022-10-16T07:45:54;100595.63;;;11.55;82.82
33845;BME280;20145;43.118;25.694;2022-10-16T07:48:21;100587.91;;;11.66;81.97
33845;BME280;20145;43.118;25.694;2022-10-16T07:50:47;100597.41;;;11.80;82.64
33845;BME280;20145;43.118;25.694;2022-10-16T07:53:13;100607.84;;;11.90;82.44
33845;BME280;20145;43.118;25.694;2022-10-16T07:55:39;100594.91;;;12.02;81.26
33845;BME280;20145;43.118;25.694;2022-10-16T07:58:05;100600.13;;;12.11;81.36
33845;BME280;20145;43.118;25.694;2022-10-16T08:00:31;100603.53;;;12.16;80.59
33845;BME280;20145;43.118;25.694;2022-10-16T08:02:57;100602.69;;;12.20;80.85
33845;BME280;20145;43.118;25.694;2022-10-16T08:05:27;100597.53;;;12.26;81.09
33845;BME280;20145;43.118;25.694;2022-10-16T08:07:52;100594.94;;;12.36;80.58
33845;BME280;20145;43.118;25.694;2022-10-16T08:10:19;100592.34;;;12.40;80.27
33845;BME280;20145;43.118;25.694;2022-10-16T08:12:45;100592.34;;;12.53;80.58
33845;BME280;20145;43.118;25.694;2022-10-16T08:15:11;100604.41;;;12.60;80.09
33845;BME280;20145;43.118;25.694;2022-10-16T08:17:37;100596.66;;;12.67;78.19
33845;BME280;20145;43.118;25.694;2022-10-16T08:20:03;100605.28;;;12.72;79.38
33845;BME280;20145;43.118;25.694;2022-10-16T08:22:29;100595.75;;;12.79;78.22
33845;BME280;20145;43.118;25.694;2022-10-16T08:24:55;100600.03;;;12.88;78.61
33845;BME280;20145;43.118;25.694;2022-10-16T08:27:20;100589.69;;;12.89;77.49
33845;BME280;20145;43.118;25.694;2022-10-16T08:29:46;100589.66;;;13.03;77.52
33845;BME280;20145;43.118;25.694;2022-10-16T08:32:11;100584.47;;;13.11;77.87
33845;BME280;20145;43.118;25.694;2022-10-16T08:34:37;100583.53;;;13.24;75.91
33845;BME280;20145;43.118;25.694;2022-10-16T08:37:02;100593.88;;;13.36;75.03
33845;BME280;20145;43.118;25.694;2022-10-16T08:39:28;100593.81;;;13.49;74.44
33845;BME280;20145;43.118;25.694;2022-10-16T08:48:02;100595.34;;;13.85;68.95
33845;BME280;20145;43.118;25.694;2022-10-16T08:50:32;100591.88;;;13.88;65.56
33845;BME280;20145;43.118;25.694;2022-10-16T08:52:58;100604.78;;;13.98;66.02
33845;BME280;20145;43.118;25.694;2022-10-16T08:55:57;100602.13;;;14.04;66.74
33845;BME280;20145;43.118;25.694;2022-10-16T08:58:17;100599.50;;;14.12;65.89
33845;BME280;20145;43.118;25.694;2022-10-16T09:00:46;100596.81;;;14.21;66.72
33845;BME280;20145;43.118;25.694;2022-10-16T09:16:46;100595.44;;;14.82;63.04
33845;BME280;20145;43.118;25.694;2022-10-16T09:19:24;100600.56;;;14.90;61.76
33845;BME280;20145;43.118;25.694;2022-10-16T09:21:54;100592.81;;;14.87;59.43
33845;BME280;20145;43.118;25.694;2022-10-16T09:24:22;100604.91;;;14.89;60.03
33845;BME280;20145;43.118;25.694;2022-10-16T09:26:49;100591.91;;;14.91;62.09
33845;BME280;20145;43.118;25.694;2022-10-16T09:29:20;100595.25;;;15.01;60.46
33845;BME280;20145;43.118;25.694;2022-10-16T09:31:46;100597.84;;;15.01;56.39
33845;BME280;20145;43.118;25.694;2022-10-16T09:36:44;100592.69;;;14.96;57.33
33845;BME280;20145;43.118;25.694;2022-10-16T09:39:11;100587.50;;;14.98;62.00
33845;BME280;20145;43.118;25.694;2022-10-16T09:41:39;100584.78;;;15.07;57.87
33845;BME280;20145;43.118;25.694;2022-10-16T09:46:43;100582.88;;;15.21;61.00
33845;BME280;20145;43.118;25.694;2022-10-16T09:49:25;100573.28;;;15.26;60.40
33845;BME280;20145;43.118;25.694;2022-10-16T09:52:11;100582.75;;;15.32;60.60
33845;BME280;20145;43.118;25.694;2022-10-16T09:54:51;100580.16;;;15.32;60.62
33845;BME280;20145;43.118;25.694;2022-10-16T09:57:18;100578.97;;;15.56;60.37
33845;BME280;20145;43.118;25.694;2022-10-16T09:59:51;100583.28;;;15.58;58.17
33845;BME280;20145;43.118;25.694;2022-10-16T10:02:19;100579.81;;;15.58;57.50
33845;BME280;20145;43.118;25.694;2022-10-16T10:04:52;100578.91;;;15.60;57.62
33845;BME280;20145;43.118;25.694;2022-10-16T10:07:26;100575.47;;;15.57;57.88
33845;BME280;20145;43.118;25.694;2022-10-16T10:09:53;100576.28;;;15.62;62.53
33845;BME280;20145;43.118;25.694;2022-10-16T10:12:24;100581.41;;;15.70;58.10
33845;BME280;20145;43.118;25.694;2022-10-16T10:14:52;100572.75;;;15.69;58.13
33845;BME280;20145;43.118;25.694;2022-10-16T10:19:56;100567.50;;;15.71;58.17
33845;BME280;20145;43.118;25.694;2022-10-16T10:22:30;100563.16;;;15.74;58.66
33845;BME280;20145;43.118;25.694;2022-10-16T10:27:39;100555.16;;;15.85;62.06
33845;BME280;20145;43.118;25.694;2022-10-16T10:30:20;100553.34;;;15.90;60.34
33845;BME280;20145;43.118;25.694;2022-10-16T10:35:43;100559.81;;;16.22;56.74
33845;BME280;20145;43.118;25.694;2022-10-16T10:47:47;100550.59;;;16.52;59.74
33845;BME280;20145;43.118;25.694;2022-10-16T10:49:44;100547.81;;;16.61;61.50
33845;BME280;20145;43.118;25.694;2022-10-16T11:01:22;100533.31;;;16.93;56.86
33845;BME280;20145;43.118;25.694;2022-10-16T11:06:52;100530.97;;;16.81;55.39
33845;BME280;20145;43.118;25.694;2022-10-16T11:09:27;100524.13;;;16.77;55.97
33845;BME280;20145;43.118;25.694;2022-10-16T11:17:24;100516.97;;;16.86;56.46
33845;BME280;20145;43.118;25.694;2022-10-16T11:19:58;100524.72;;;16.89;55.82
33845;BME280;20145;43.118;25.694;2022-10-16T11:25:43;100522.69;;;17.04;56.84
33845;BME280;20145;43.118;25.694;2022-10-16T11:28:37;100523.50;;;17.06;60.48
33845;BME280;20145;43.118;25.694;2022-10-16T11:31:07;100531.59;;;16.93;55.51
33845;BME280;20145;43.118;25.694;2022-10-16T11:33:41;100523.53;;;17.04;57.97
33845;BME280;20145;43.118;25.694;2022-10-16T11:41:39;100514.94;;;17.01;56.25
33845;BME280;20145;43.118;25.694;2022-10-16T11:44:23;100517.47;;;17.04;55.87
33845;BME280;20145;43.118;25.694;2022-10-16T11:47:13;100506.75;;;17.17;58.76
33845;BME280;20145;43.118;25.694;2022-10-16T11:49:43;100513.47;;;17.29;58.39
33845;BME280;20145;43.118;25.694;2022-10-16T11:52:23;100511.44;;;17.42;58.50
33845;BME280;20145;43.118;25.694;2022-10-16T11:55:34;100515.94;;;17.35;55.64
33845;BME280;20145;43.118;25.694;2022-10-16T11:57:44;100504.22;;;17.53;60.90
33845;BME280;20145;43.118;25.694;2022-10-16T12:00:24;100514.94;;;17.41;55.44
33845;BME280;20145;43.118;25.694;2022-10-16T12:03:11;100516.03;;;17.31;54.01
33845;BME280;20145;43.118;25.694;2022-10-16T12:06:06;100511.84;;;17.24;54.63
33845;BME280;20145;43.118;25.694;2022-10-16T12:08:39;100512.63;;;17.27;54.84
33845;BME280;20145;43.118;25.694;2022-10-16T12:16:56;100516.78;;;17.36;54.67
33845;BME280;20145;43.118;25.694;2022-10-16T12:19:23;100517.63;;;17.36;56.09
33845;BME280;20145;43.118;25.694;2022-10-16T12:21:51;100522.69;;;17.44;57.11
33845;BME280;20145;43.118;25.694;2022-10-16T12:24:37;100521.94;;;17.39;52.81
33845;BME280;20145;43.118;25.694;2022-10-16T12:27:06;100521.94;;;17.39;56.64
33845;BME280;20145;43.118;25.694;2022-10-16T12:29:38;100522.03;;;17.34;52.98
33845;BME280;20145;43.118;25.694;2022-10-16T12:32:19;100508.09;;;17.35;54.21
33845;BME280;20145;43.118;25.694;2022-10-16T12:34:48;100514.94;;;17.41;53.88
33845;BME280;20145;43.118;25.694;2022-10-16T12:39:44;100517.13;;;17.59;52.91
33845;BME280;20145;43.118;25.694;2022-10-16T12:44:51;100515.31;;;17.63;53.31
33845;BME280;20145;43.118;25.694;2022-10-16T12:47:46;100521.38;;;17.64;52.62
33845;BME280;20145;43.118;25.694;2022-10-16T12:50:27;100516.09;;;17.65;53.15
33845;BME280;20145;43.118;25.694;2022-10-16T12:52:53;100522.09;;;17.70;53.00
33845;BME280;20145;43.118;25.694;2022-10-16T12:55:20;100517.63;;;17.75;53.61
33845;BME280;20145;43.118;25.694;2022-10-16T13:08:54;100525.06;;;17.94;51.22
33845;BME280;20145;43.118;25.694;2022-10-16T13:14:58;100521.31;;;18.04;51.53
33845;BME280;20145;43.118;25.694;2022-10-16T13:17:53;100524.03;;;17.99;52.98
33845;BME280;20145;43.118;25.694;2022-10-16T13:23:09;100522.13;;;18.06;57.74
33845;BME280;20145;43.118;25.694;2022-10-16T13:28:34;100531.41;;;18.18;57.57
33845;BME280;20145;43.118;25.694;2022-10-16T13:31:01;100533.16;;;18.17;50.75
33845;BME280;20145;43.118;25.694;2022-10-16T13:33:41;100531.97;;;18.31;60.28
33845;BME280;20145;43.118;25.694;2022-10-16T13:36:23;100530.91;;;18.38;53.29
33845;BME280;20145;43.118;25.694;2022-10-16T13:39:15;100531.72;;;18.40;50.23
33845;BME280;20145;43.118;25.694;2022-10-16T13:41:43;100535.41;;;18.33;51.77
33845;BME280;20145;43.118;25.694;2022-10-16T13:44:19;100538.19;;;18.25;47.88
33845;BME280;20145;43.118;25.694;2022-10-16T13:46:57;100532.03;;;18.27;61.08
33845;BME280;20145;43.118;25.694;2022-10-16T13:49:24;100544.38;;;18.22;50.87
33845;BME280;20145;43.118;25.694;2022-10-16T13:51:57;100544.38;;;18.22;59.22
33845;BME280;20145;43.118;25.694;2022-10-16T13:54:25;100545.47;;;18.14;49.60
33845;BME280;20145;43.118;25.694;2022-10-16T13:59:36;100551.66;;;18.10;54.62
33845;BME280;20145;43.118;25.694;2022-10-16T14:02:37;100543.84;;;18.10;49.00
33845;BME280;20145;43.118;25.694;2022-10-16T14:05:08;100540.31;;;18.11;48.71
33845;BME280;20145;43.118;25.694;2022-10-16T14:07:35;100535.78;;;18.17;47.49
33845;BME280;20145;43.118;25.694;2022-10-16T14:10:04;100535.66;;;18.22;52.17
33845;BME280;20145;43.118;25.694;2022-10-16T14:12:31;100535.84;;;18.16;46.51
33845;BME280;20145;43.118;25.694;2022-10-16T14:14:58;100538.56;;;18.11;50.34
33845;BME280;20145;43.118;25.694;2022-10-16T14:17:28;100536.78;;;18.12;55.28
33845;BME280;20145;43.118;25.694;2022-10-16T14:19:56;100542.16;;;18.05;51.44
33845;BME280;20145;43.118;25.694;2022-10-16T14:22:30;100551.91;;;17.99;50.89
33845;BME280;20145;43.118;25.694;2022-10-16T14:24:57;100543.19;;;18.00;54.91
33845;BME280;20145;43.118;25.694;2022-10-16T14:32:41;100549.66;;;17.83;50.34
33845;BME280;20145;43.118;25.694;2022-10-16T14:35:29;100553.25;;;17.78;51.43
33845;BME280;20145;43.118;25.694;2022-10-16T14:37:56;100547.81;;;17.87;48.02
33845;BME280;20145;43.118;25.694;2022-10-16T14:40:31;100558.19;;;17.92;49.26
33845;BME280;20145;43.118;25.694;2022-10-16T14:42:57;100550.41;;;17.89;49.46
33845;BME280;20145;43.118;25.694;2022-10-16T14:45:29;100559.19;;;17.86;50.37
33845;BME280;20145;43.118;25.694;2022-10-16T14:48:01;100554.25;;;17.71;49.82
33845;BME280;20145;43.118;25.694;2022-10-16T14:50:28;100562.84;;;17.76;57.93
33845;BME280;20145;43.118;25.694;2022-10-16T14:52:54;100554.25;;;17.71;58.64
33845;BME280;20145;43.118;25.694;2022-10-16T14:55:20;100554.06;;;17.81;55.71
33845;BME280;20145;43.118;25.694;2022-10-16T14:57:46;100556.75;;;17.77;60.18
33845;BME280;20145;43.118;25.694;2022-10-16T15:00:19;100569.13;;;17.69;61.96
33845;BME280;20145;43.118;25.694;2022-10-16T15:02:47;100570.00;;;17.68;63.52
33845;BME280;20145;43.118;25.694;2022-10-16T15:07:47;100577.41;;;17.47;54.41